Time;durP1;ratioP1;P1;durP2;ratioP2;P2;SDS_P1;SDS_P2;PMS_P1;PMS_P2;Temp;Humidity;BMP_temperature;BMP_pressure;BME280_temperature;BME280_humidity;BME280_pressure;Samples;Min_cycle;Max_cycle;Signal;HPM_P1;HPM_P2
2021/11/22 00:01:05;;;;;;;7.87;6.13;;;6.10;99.90;;;;;;5115340;28;20168;-71
2021/11/22 00:03:31;;;;;;;16.13;6.90;;;6.20;99.90;;;;;;5115324;28;20192;-71
2021/11/22 00:05:57;;;;;;;12.00;6.23;;;6.20;99.90;;;;;;5113694;28;20445;-70
2021/11/22 00:08:24;;;;;;;12.07;6.93;;;6.40;99.90;;;;;;5114714;28;20414;-71
2021/11/22 00:10:49;;;;;;;13.00;6.23;;;6.30;99.90;;;;;;5094313;28;20434;-71
2021/11/22 00:13:15;;;;;;;7.53;6.37;;;6.40;99.90;;;;;;5089481;28;20462;-71
2021/11/22 00:15:41;;;;;;;12.03;6.47;;;6.60;99.90;;;;;;5087658;28;20208;-71
2021/11/22 00:18:06;;;;;;;13.67;6.47;;;6.70;99.90;;;;;;5090945;28;20492;-71
2021/11/22 00:20:35;;;;;;;12.47;6.83;;;6.80;99.90;;;;;;5093370;28;20176;-70
2021/11/22 00:23:01;;;;;;;12.43;6.83;;;6.70;99.90;;;;;;5094049;28;20227;-71
2021/11/22 00:25:27;;;;;;;9.70;7.30;;;6.90;99.90;;;;;;5093180;28;20959;-71
2021/11/22 00:27:52;;;;;;;8.17;7.20;;;6.90;99.90;;;;;;5093463;28;20398;-71
2021/11/22 00:30:19;;;;;;;8.00;6.73;;;6.90;99.90;;;;;;5093472;28;20407;-71
2021/11/22 00:32:45;;;;;;;14.23;7.83;;;7.00;99.90;;;;;;5093230;28;20173;-71
2021/11/22 00:35:14;;;;;;;9.40;6.83;;;7.00;99.90;;;;;;5093156;28;20476;-71
2021/11/22 00:37:41;;;;;;;13.13;8.83;;;7.10;99.90;;;;;;5092335;28;20419;-71
2021/11/22 00:40:10;;;;;;;9.53;7.33;;;7.10;99.90;;;;;;5092868;28;20415;-71
2021/11/22 00:42:38;;;;;;;11.50;6.83;;;7.10;99.90;;;;;;5092587;28;20458;-71
2021/11/22 00:45:04;;;;;;;8.93;7.00;;;7.00;99.90;;;;;;5093130;28;20496;-71
2021/11/22 00:47:30;;;;;;;16.33;8.20;;;7.00;99.90;;;;;;5092760;28;20398;-71
2021/11/22 00:49:55;;;;;;;11.43;8.10;;;7.00;99.90;;;;;;5093239;28;20412;-71
2021/11/22 00:52:21;;;;;;;14.60;7.93;;;7.00;99.90;;;;;;5092474;28;20552;-71
2021/11/22 00:54:47;;;;;;;14.20;8.90;;;7.10;99.90;;;;;;5093015;28;20207;-71
2021/11/22 00:57:12;;;;;;;8.70;7.80;;;7.20;99.90;;;;;;5092646;28;20161;-71
2021/11/22 00:59:38;;;;;;;17.10;9.00;;;7.20;99.90;;;;;;5092708;28;20350;-71
2021/11/22 01:02:04;;;;;;;14.30;10.87;;;7.30;99.90;;;;;;5092521;28;20588;-70
2021/11/22 01:04:29;;;;;;;13.20;9.67;;;7.30;99.90;;;;;;5092358;28;20204;-71
2021/11/22 01:06:55;;;;;;;15.40;10.07;;;7.30;99.90;;;;;;5092203;28;20287;-71
2021/11/22 01:09:21;;;;;;;17.63;9.70;;;7.20;99.90;;;;;;5092505;28;20165;-71
2021/11/22 01:11:46;;;;;;;16.00;11.03;;;7.10;99.90;;;;;;5092705;28;20175;-71
2021/11/22 01:14:13;;;;;;;12.60;10.30;;;7.20;99.90;;;;;;5092481;28;20212;-71
2021/11/22 01:16:39;;;;;;;13.60;10.50;;;7.00;99.90;;;;;;5092373;28;20242;-71
2021/11/22 01:19:06;;;;;;;18.63;10.87;;;6.90;99.90;;;;;;5092514;28;20410;-71
2021/11/22 01:21:32;;;;;;;16.20;10.60;;;6.80;99.90;;;;;;5092730;28;20399;-71
2021/11/22 01:23:58;;;;;;;16.53;11.23;;;6.80;99.90;;;;;;5084569;28;20528;-71
2021/11/22 01:26:24;;;;;;;16.30;11.40;;;6.70;99.90;;;;;;5072002;28;20416;-71
2021/11/22 01:28:49;;;;;;;17.33;11.77;;;6.80;99.90;;;;;;5072380;28;20507;-71
2021/11/22 01:31:15;;;;;;;18.93;12.27;;;6.80;99.90;;;;;;5072463;28;20200;-71
2021/11/22 01:33:41;;;;;;;18.80;13.27;;;6.70;99.90;;;;;;5072433;28;20260;-71
2021/11/22 01:36:07;;;;;;;22.10;13.87;;;6.70;99.90;;;;;;5091971;28;20179;-71
2021/11/22 01:38:33;;;;;;;17.20;12.10;;;6.70;99.90;;;;;;5092389;28;20974;-71
2021/11/22 01:41:01;;;;;;;16.53;13.00;;;6.80;99.90;;;;;;5092623;28;20468;-71
2021/11/22 01:43:27;;;;;;;19.47;13.20;;;6.90;99.90;;;;;;5092415;28;20808;-71
2021/11/22 01:45:53;;;;;;;17.80;13.10;;;6.80;99.90;;;;;;5091156;28;20538;-71
2021/11/22 01:48:19;;;;;;;22.67;15.50;;;6.80;99.90;;;;;;5092284;28;20503;-71
2021/11/22 01:50:47;;;;;;;24.07;14.63;;;6.90;99.90;;;;;;5092382;28;20197;-71
2021/11/22 01:53:15;;;;;;;21.80;15.30;;;6.90;99.90;;;;;;5092406;28;20407;-71
2021/11/22 01:55:41;;;;;;;20.47;15.33;;;6.80;99.90;;;;;;5091378;28;20445;-71
2021/11/22 01:58:07;;;;;;;21.97;14.93;;;6.80;99.90;;;;;;5092241;28;21002;-71
2021/11/22 02:00:45;;;;;;;23.50;15.73;;;6.80;99.90;;;;;;5093160;28;20438;-71
2021/11/22 02:03:11;;;;;;;23.57;15.97;;;6.80;99.90;;;;;;5092781;28;20256;-71
2021/11/22 02:05:37;;;;;;;27.47;17.37;;;6.80;99.90;;;;;;5091878;28;20426;-71
2021/11/22 02:08:04;;;;;;;22.47;16.30;;;6.80;99.90;;;;;;5091960;28;20180;-71
2021/11/22 02:10:30;;;;;;;25.60;16.80;;;6.80;99.90;;;;;;5092272;28;20180;-71
2021/11/22 02:12:57;;;;;;;20.40;15.43;;;6.80;99.90;;;;;;5082556;28;20419;-71
2021/11/22 02:15:22;;;;;;;25.80;16.20;;;6.80;99.90;;;;;;5090754;28;20549;-70
2021/11/22 02:17:50;;;;;;;22.60;16.87;;;6.80;99.90;;;;;;5085283;28;20451;-70
2021/11/22 02:20:20;;;;;;;22.63;16.43;;;6.90;99.90;;;;;;5070715;28;20265;-70
2021/11/22 02:22:48;;;;;;;24.57;16.90;;;6.90;99.90;;;;;;5071888;28;20466;-71
2021/11/22 02:25:16;;;;;;;24.70;15.13;;;6.90;99.90;;;;;;5071607;28;20455;-70
2021/11/22 02:27:43;;;;;;;25.03;16.60;;;6.90;99.90;;;;;;5078195;28;20818;-70
2021/11/22 02:30:11;;;;;;;24.00;16.67;;;6.90;99.90;;;;;;5093857;28;20823;-70
2021/11/22 02:32:39;;;;;;;30.33;22.30;;;6.90;99.90;;;;;;5095041;28;20436;-70
2021/11/22 02:35:08;;;;;;;31.83;20.73;;;6.50;99.90;;;;;;5096382;28;20636;-70
2021/11/22 02:37:33;;;;;;;34.37;20.90;;;6.40;99.90;;;;;;5096485;28;20528;-71
2021/11/22 02:39:59;;;;;;;29.80;20.60;;;6.40;99.90;;;;;;5097692;28;20422;-71
2021/11/22 02:42:27;;;;;;;34.37;22.60;;;6.40;99.90;;;;;;5081317;28;20219;-71
2021/11/22 02:44:53;;;;;;;31.37;21.93;;;6.40;99.90;;;;;;5076109;28;20186;-71
2021/11/22 02:47:21;;;;;;;32.33;22.00;;;6.50;99.90;;;;;;5075786;28;20430;-71
2021/11/22 02:49:47;;;;;;;30.10;21.23;;;6.60;99.90;;;;;;5076386;28;20403;-71
2021/11/22 02:52:12;;;;;;;33.10;20.43;;;6.70;99.90;;;;;;5085581;28;20894;-71
2021/11/22 02:54:39;;;;;;;28.60;19.90;;;6.70;99.90;;;;;;5094723;28;20561;-71
2021/11/22 02:57:05;;;;;;;28.53;19.20;;;6.70;99.90;;;;;;5095632;28;20555;-70
2021/11/22 02:59:30;;;;;;;33.80;20.80;;;6.80;99.90;;;;;;5096421;28;20414;-71
2021/11/22 03:01:56;;;;;;;26.30;19.63;;;6.60;99.90;;;;;;5096232;28;20414;-71
2021/11/22 03:04:32;;;;;;;28.63;21.57;;;6.60;99.90;;;;;;5075133;28;20308;-71
2021/11/22 03:06:58;;;;;;;31.57;21.87;;;6.70;99.90;;;;;;5075796;28;20176;-72
2021/11/22 03:09:24;;;;;;;31.63;20.40;;;6.60;99.90;;;;;;5075776;28;20837;-71
2021/11/22 03:11:49;;;;;;;27.87;19.57;;;6.60;99.90;;;;;;5075969;28;20555;-71
2021/11/22 03:14:15;;;;;;;25.90;18.20;;;6.70;99.90;;;;;;5091027;28;20800;-72
2021/11/22 03:16:41;;;;;;;22.43;18.00;;;6.70;99.90;;;;;;5095056;28;20702;-71
2021/11/22 03:19:06;;;;;;;24.40;18.27;;;6.70;99.90;;;;;;5095690;28;20607;-71
2021/11/22 03:21:33;;;;;;;27.30;17.60;;;6.50;99.90;;;;;;5094187;28;20425;-71
2021/11/22 03:23:59;;;;;;;20.03;15.67;;;6.60;99.90;;;;;;5094799;28;20200;-71
2021/11/22 03:26:25;;;;;;;22.10;16.27;;;6.60;99.90;;;;;;5095540;28;20429;-71
2021/11/22 03:28:51;;;;;;;21.83;15.43;;;6.70;99.90;;;;;;5096185;28;20895;-71
2021/11/22 03:31:17;;;;;;;19.77;16.00;;;6.70;99.90;;;;;;5096269;28;20418;-71
2021/11/22 03:33:45;;;;;;;21.97;16.17;;;6.70;99.90;;;;;;5095604;28;20169;-71
2021/11/22 03:36:11;;;;;;;21.57;15.03;;;6.70;99.90;;;;;;5094625;28;20415;-71
2021/11/22 03:38:37;;;;;;;18.87;14.40;;;6.70;99.90;;;;;;5095051;28;20418;-71
2021/11/22 03:41:09;;;;;;;19.63;15.13;;;6.80;99.90;;;;;;5095260;28;20848;-71
2021/11/22 03:43:47;;;;;;;18.13;13.33;;;6.80;99.90;;;;;;5094960;28;20445;-71
2021/11/22 03:46:14;;;;;;;20.90;14.37;;;6.80;99.90;;;;;;5093873;28;20426;-71
2021/11/22 03:48:40;;;;;;;16.50;13.00;;;6.70;99.90;;;;;;5094952;28;20764;-71
2021/11/22 03:51:06;;;;;;;16.20;13.60;;;6.70;99.90;;;;;;5094601;28;20411;-71
2021/11/22 03:53:31;;;;;;;19.30;13.50;;;6.70;99.90;;;;;;5095053;28;20173;-71
2021/11/22 03:55:58;;;;;;;15.50;12.30;;;6.70;99.90;;;;;;5093678;28;20443;-72
2021/11/22 03:58:24;;;;;;;15.43;12.00;;;6.70;99.90;;;;;;5094635;28;20184;-71
2021/11/22 04:00:49;;;;;;;14.00;11.40;;;6.70;99.90;;;;;;5094527;28;20824;-72
2021/11/22 04:03:15;;;;;;;19.80;13.30;;;6.80;99.90;;;;;;5094755;28;20203;-71
2021/11/22 04:05:41;;;;;;;15.77;12.97;;;6.80;99.90;;;;;;5094828;28;20199;-71
2021/11/22 04:08:08;;;;;;;16.93;14.00;;;6.80;99.90;;;;;;5094271;28;20419;-72
2021/11/22 04:10:35;;;;;;;20.30;15.30;;;6.70;99.90;;;;;;5095320;28;20196;-71
2021/11/22 04:13:01;;;;;;;21.63;16.00;;;6.70;99.90;;;;;;5092781;28;20427;-71
2021/11/22 04:15:27;;;;;;;18.07;14.47;;;6.80;99.90;;;;;;5094813;28;20461;-71
2021/11/22 04:17:52;;;;;;;18.63;14.40;;;6.70;99.90;;;;;;5084919;28;20518;-71
2021/11/22 04:20:18;;;;;;;18.13;12.90;;;6.70;99.90;;;;;;5075009;28;20177;-71
2021/11/22 04:22:44;;;;;;;14.57;10.00;;;6.80;99.90;;;;;;5074490;28;20200;-71
2021/11/22 04:25:10;;;;;;;12.23;10.13;;;6.80;99.90;;;;;;5075016;28;20268;-71
2021/11/22 04:27:36;;;;;;;11.30;8.97;;;6.70;99.90;;;;;;5079173;28;20176;-72
2021/11/22 04:30:04;;;;;;;11.37;9.10;;;6.70;99.90;;;;;;5095036;28;20740;-72
2021/11/22 04:32:29;;;;;;;13.07;8.83;;;6.80;99.90;;;;;;5094856;28;20407;-72
2021/11/22 04:34:55;;;;;;;10.60;8.30;;;6.80;99.90;;;;;;5094876;28;20466;-72
2021/11/22 04:37:25;;;;;;;9.30;7.93;;;6.90;99.90;;;;;;5092438;28;20233;-72
2021/11/22 04:39:51;;;;;;;11.10;7.43;;;7.00;99.90;;;;;;5093268;28;20173;-71
2021/11/22 04:42:16;;;;;;;8.43;7.00;;;7.10;99.90;;;;;;5093917;28;20980;-69
2021/11/22 04:44:42;;;;;;;7.63;6.70;;;7.10;99.90;;;;;;5091901;28;20208;-70
2021/11/22 04:47:09;;;;;;;8.10;6.27;;;6.90;99.90;;;;;;5087072;28;20188;-70
2021/11/22 04:49:36;;;;;;;7.33;6.63;;;7.00;99.90;;;;;;5093365;28;20188;-70
2021/11/22 04:52:01;;;;;;;8.80;6.67;;;7.00;99.90;;;;;;5084208;28;20452;-70
2021/11/22 04:54:27;;;;;;;9.40;7.13;;;7.20;99.90;;;;;;5072133;28;20939;-70
2021/11/22 04:56:52;;;;;;;9.10;6.40;;;7.20;99.90;;;;;;5083079;28;20435;-70
2021/11/22 04:59:18;;;;;;;7.43;6.63;;;7.30;99.90;;;;;;5075083;28;20265;-68
2021/11/22 05:01:44;;;;;;;8.80;7.57;;;7.40;99.90;;;;;;5089507;28;20212;-68
2021/11/22 05:04:10;;;;;;;8.23;7.40;;;7.40;99.90;;;;;;5087571;28;20212;-69
2021/11/22 05:06:35;;;;;;;9.13;7.60;;;7.30;99.90;;;;;;5087799;28;20415;-69
2021/11/22 05:09:01;;;;;;;12.93;9.23;;;7.10;99.90;;;;;;5088782;28;20426;-69
2021/11/22 05:11:27;;;;;;;11.37;9.73;;;7.20;99.90;;;;;;5086896;28;20169;-69
2021/11/22 05:13:53;;;;;;;11.70;10.50;;;7.10;99.90;;;;;;5091797;28;20595;-69
2021/11/22 05:16:19;;;;;;;12.33;10.50;;;6.90;99.90;;;;;;5091532;28;20442;-69
2021/11/22 05:18:44;;;;;;;14.40;10.80;;;6.80;99.90;;;;;;5092807;28;20508;-69
2021/11/22 05:21:10;;;;;;;10.43;9.23;;;6.70;99.90;;;;;;5116103;22;20597;-69
2021/11/22 05:23:36;;;;;;;11.00;9.20;;;6.70;99.90;;;;;;5109489;28;20208;-70
2021/11/22 05:26:01;;;;;;;11.70;10.50;;;6.70;99.90;;;;;;5111801;28;20192;-69
2021/11/22 05:28:27;;;;;;;11.50;10.00;;;6.60;99.90;;;;;;5113054;28;20176;-70
2021/11/22 05:30:52;;;;;;;14.00;11.00;;;6.50;99.90;;;;;;5107304;28;20211;-71
2021/11/22 05:33:18;;;;;;;13.40;10.60;;;6.60;99.90;;;;;;5090358;28;20216;-70
2021/11/22 05:35:43;;;;;;;12.13;10.00;;;6.60;99.90;;;;;;5077343;28;20215;-70
2021/11/22 05:38:09;;;;;;;11.70;10.03;;;6.60;99.90;;;;;;5094396;28;20180;-70
2021/11/22 05:40:35;;;;;;;11.87;9.70;;;6.60;99.90;;;;;;5094741;28;20253;-70
2021/11/22 05:43:01;;;;;;;11.30;9.27;;;6.60;99.90;;;;;;5094783;28;20287;-70
2021/11/22 05:45:27;;;;;;;12.10;9.07;;;6.60;99.90;;;;;;5095683;28;20165;-70
2021/11/22 05:47:53;;;;;;;10.30;8.87;;;6.60;99.90;;;;;;5094133;28;20417;-70
2021/11/22 05:50:19;;;;;;;10.37;9.10;;;6.50;99.90;;;;;;5093933;28;20217;-70
2021/11/22 05:52:50;;;;;;;10.03;9.00;;;6.40;99.90;;;;;;5094078;28;20189;-70
2021/11/22 05:55:18;;;;;;;9.70;8.30;;;6.50;99.90;;;;;;5074761;28;20453;-70
2021/11/22 05:57:44;;;;;;;10.30;8.90;;;6.40;99.90;;;;;;5093784;28;20474;-70
2021/11/22 06:00:10;;;;;;;9.90;8.90;;;6.40;99.90;;;;;;5074375;28;20492;-70
2021/11/22 06:02:36;;;;;;;8.87;7.87;;;6.40;99.90;;;;;;5078923;28;20258;-70
2021/11/22 06:05:02;;;;;;;11.80;8.17;;;6.50;99.90;;;;;;5081606;28;20460;-69
2021/11/22 06:07:27;;;;;;;7.97;7.00;;;6.50;99.90;;;;;;5083516;28;20201;-70
2021/11/22 06:09:54;;;;;;;9.37;7.83;;;6.50;99.90;;;;;;5096149;28;20212;-70
2021/11/22 06:12:19;;;;;;;8.20;7.40;;;6.60;99.90;;;;;;5082834;28;20238;-70
2021/11/22 06:14:45;;;;;;;8.43;7.63;;;6.60;99.90;;;;;;5080631;28;20956;-69
2021/11/22 06:17:11;;;;;;;11.97;7.10;;;6.70;99.90;;;;;;5076263;28;20193;-70
2021/11/22 06:19:36;;;;;;;9.10;7.17;;;6.80;99.90;;;;;;5075434;28;20216;-69
2021/11/22 06:22:02;;;;;;;8.67;7.87;;;6.90;99.90;;;;;;5057821;28;20219;-69
2021/11/22 06:24:27;;;;;;;10.30;8.30;;;6.90;99.90;;;;;;5058538;28;20312;-70
2021/11/22 06:26:55;;;;;;;8.47;7.57;;;6.90;99.90;;;;;;5076687;28;20201;-68
2021/11/22 06:29:21;;;;;;;9.97;8.97;;;6.90;99.90;;;;;;5056436;28;20212;-69
2021/11/22 06:31:47;;;;;;;10.70;8.67;;;6.90;99.90;;;;;;5076571;28;20629;-70
2021/11/22 06:34:12;;;;;;;10.97;9.00;;;7.00;99.90;;;;;;5076043;28;20499;-69
2021/11/22 06:36:38;;;;;;;11.07;8.57;;;6.80;99.90;;;;;;5075385;28;20201;-69
2021/11/22 06:39:04;;;;;;;12.20;9.53;;;6.60;99.90;;;;;;5076112;28;20212;-69
2021/11/22 06:41:29;;;;;;;9.80;8.80;;;6.60;99.90;;;;;;5083621;28;20299;-70
2021/11/22 06:43:55;;;;;;;10.43;9.40;;;6.70;99.90;;;;;;5095308;28;20569;-69
2021/11/22 06:46:20;;;;;;;11.67;9.10;;;6.60;99.90;;;;;;5094285;28;20614;-69
2021/11/22 06:48:46;;;;;;;10.73;9.53;;;6.50;99.90;;;;;;5094347;28;20172;-69
2021/11/22 06:51:12;;;;;;;10.83;9.43;;;6.60;99.90;;;;;;5076323;28;20642;-69
2021/11/22 06:53:37;;;;;;;11.70;9.90;;;6.60;99.90;;;;;;5097796;28;20259;-70
2021/11/22 06:56:03;;;;;;;9.87;8.87;;;6.50;99.90;;;;;;5095149;28;20173;-70
2021/11/22 06:58:29;;;;;;;9.57;8.57;;;6.40;99.90;;;;;;5093942;28;20261;-70
2021/11/22 07:00:54;;;;;;;10.40;9.37;;;6.40;99.90;;;;;;5094042;28;20179;-69
2021/11/22 07:03:20;;;;;;;9.07;8.17;;;6.40;99.90;;;;;;5073675;28;20287;-70
2021/11/22 07:05:47;;;;;;;12.80;9.67;;;6.50;99.90;;;;;;5095665;28;20165;-69
2021/11/22 07:08:13;;;;;;;11.13;8.70;;;6.50;99.90;;;;;;5098533;28;20811;-69
2021/11/22 07:10:39;;;;;;;10.23;9.13;;;6.60;99.90;;;;;;5098679;28;20399;-70
2021/11/22 07:13:04;;;;;;;9.03;8.13;;;6.60;99.90;;;;;;5093408;28;20246;-70
2021/11/22 07:15:35;;;;;;;9.50;8.23;;;6.70;99.90;;;;;;5094978;28;20181;-71
2021/11/22 07:18:01;;;;;;;9.37;8.47;;;6.70;99.90;;;;;;5095215;28;20181;-70
2021/11/22 07:20:27;;;;;;;9.90;8.80;;;6.70;99.90;;;;;;5098684;28;20414;-70
2021/11/22 07:22:53;;;;;;;9.37;8.47;;;6.80;99.90;;;;;;5079363;28;20478;-69
2021/11/22 07:25:19;;;;;;;11.87;10.53;;;6.80;99.90;;;;;;5080285;28;20185;-69
2021/11/22 07:27:45;;;;;;;13.97;11.50;;;6.80;99.90;;;;;;5095040;28;20815;-69
2021/11/22 07:30:11;;;;;;;13.80;11.17;;;6.60;99.90;;;;;;5094515;28;20410;-70
2021/11/22 07:32:36;;;;;;;14.73;10.30;;;6.60;99.90;;;;;;5094428;28;20196;-69
2021/11/22 07:35:03;;;;;;;12.80;9.70;;;6.60;99.90;;;;;;5082821;28;20292;-69
2021/11/22 07:37:29;;;;;;;11.97;9.70;;;6.60;99.90;;;;;;5073770;28;20183;-69
2021/11/22 07:39:54;;;;;;;10.67;9.57;;;6.50;99.90;;;;;;5074253;28;20843;-69
2021/11/22 07:42:20;;;;;;;12.70;10.80;;;6.50;99.90;;;;;;5073790;28;20483;-71
2021/11/22 07:44:46;;;;;;;13.93;11.00;;;6.30;99.90;;;;;;5056973;28;20193;-70
2021/11/22 07:47:12;;;;;;;14.50;11.50;;;6.30;99.90;;;;;;5073807;28;20231;-70
2021/11/22 07:49:39;;;;;;;14.10;11.47;;;6.30;99.90;;;;;;5056622;28;20180;-70
2021/11/22 07:52:06;;;;;;;14.80;12.30;;;6.40;99.90;;;;;;5055588;28;20432;-69
2021/11/22 07:54:31;;;;;;;15.87;11.60;;;6.40;99.90;;;;;;5055961;28;20460;-70
2021/11/22 07:56:57;;;;;;;12.53;10.53;;;6.50;99.90;;;;;;5075213;28;20428;-70
2021/11/22 07:59:23;;;;;;;12.20;10.40;;;6.40;99.90;;;;;;5073511;28;20204;-70
2021/11/22 08:01:48;;;;;;;13.60;10.10;;;6.40;99.90;;;;;;5074261;28;20292;-69
2021/11/22 08:04:15;;;;;;;12.70;11.30;;;6.50;99.90;;;;;;5055416;28;20248;-71
2021/11/22 08:06:48;;;;;;;14.80;11.60;;;6.50;99.90;;;;;;5056603;28;20252;-69
2021/11/22 08:09:43;;;;;;;12.00;10.77;;;6.50;99.90;;;;;;5073744;28;20408;-69
2021/11/22 08:15:09;;;;;;;10.50;8.93;;;6.70;99.90;;;;;;4991676;28;20414;-69
2021/11/22 08:17:38;;;;;;;9.50;8.20;;;6.70;99.90;;;;;;5003309;28;20431;-71
2021/11/22 08:20:05;;;;;;;9.90;8.90;;;6.60;99.90;;;;;;5011217;28;20779;-68
2021/11/22 08:22:31;;;;;;;10.33;9.07;;;6.70;99.90;;;;;;5011387;28;21028;-69
2021/11/22 08:24:57;;;;;;;20.93;9.27;;;6.70;99.90;;;;;;5010832;28;20446;-69
2021/11/22 08:27:25;;;;;;;14.70;9.70;;;6.50;99.90;;;;;;5009941;28;20280;-70
2021/11/22 08:29:51;;;;;;;10.73;9.20;;;6.60;99.90;;;;;;5011632;28;20175;-70
2021/11/22 08:32:18;;;;;;;11.07;9.40;;;6.70;99.90;;;;;;5011266;28;20971;-69
2021/11/22 08:34:44;;;;;;;9.90;8.93;;;6.70;99.90;;;;;;5011199;28;20185;-70
2021/11/22 08:37:09;;;;;;;10.50;9.23;;;6.50;99.90;;;;;;5010710;28;20502;-69
2021/11/22 08:39:35;;;;;;;12.83;9.23;;;6.30;99.90;;;;;;5010867;28;20431;-69
2021/11/22 08:42:01;;;;;;;12.23;9.87;;;6.30;99.90;;;;;;4993073;28;20274;-69
2021/11/22 08:44:26;;;;;;;11.03;9.43;;;6.30;99.90;;;;;;4991071;28;20208;-69
2021/11/22 08:46:52;;;;;;;10.47;9.37;;;6.40;99.90;;;;;;4991230;28;20263;-70
2021/11/22 08:49:18;;;;;;;15.53;9.10;;;6.40;99.90;;;;;;4990857;28;20172;-70
2021/11/22 08:51:44;;;;;;;15.37;9.87;;;6.60;99.90;;;;;;5075029;28;20206;-69
2021/11/22 08:54:10;;;;;;;9.97;8.73;;;6.70;99.90;;;;;;5093052;28;20490;-69
2021/11/22 08:56:36;;;;;;;10.87;8.33;;;6.60;99.90;;;;;;5092954;28;20454;-69
2021/11/22 08:59:02;;;;;;;9.80;8.80;;;6.60;99.90;;;;;;5075067;28;20427;-70
2021/11/22 09:01:29;;;;;;;12.40;9.80;;;6.70;99.90;;;;;;5093223;28;20215;-70
2021/11/22 09:03:56;;;;;;;9.73;8.70;;;6.70;99.90;;;;;;5091110;28;20469;-69
2021/11/22 09:06:21;;;;;;;10.90;9.17;;;6.80;99.90;;;;;;5092413;28;20425;-69
2021/11/22 09:08:47;;;;;;;10.53;8.80;;;6.90;99.90;;;;;;5092774;28;20907;-70
2021/11/22 09:11:14;;;;;;;10.30;9.00;;;7.00;99.90;;;;;;5092324;28;20173;-70
2021/11/22 09:13:40;;;;;;;11.20;8.53;;;7.10;99.90;;;;;;5090776;28;20931;-70
2021/11/22 09:16:06;;;;;;;10.97;8.40;;;7.10;99.90;;;;;;5092489;28;20414;-71
2021/11/22 09:18:32;;;;;;;9.30;8.30;;;7.00;99.90;;;;;;5092544;28;20407;-70
2021/11/22 09:20:58;;;;;;;12.17;8.80;;;7.00;99.90;;;;;;5092477;28;20419;-70
2021/11/22 09:23:24;;;;;;;9.63;7.53;;;7.00;99.90;;;;;;5090899;28;20212;-70
2021/11/22 09:25:51;;;;;;;10.43;8.77;;;6.90;99.90;;;;;;5073955;28;20194;-70
2021/11/22 09:28:17;;;;;;;9.10;7.40;;;6.80;99.90;;;;;;5092922;28;20954;-70
2021/11/22 09:30:43;;;;;;;8.97;8.10;;;6.60;99.90;;;;;;5092298;28;20406;-70
2021/11/22 09:33:10;;;;;;;10.40;7.70;;;6.60;99.90;;;;;;5092301;28;20554;-70
2021/11/22 09:35:37;;;;;;;7.97;7.17;;;6.80;99.90;;;;;;5090070;28;20206;-69
2021/11/22 09:38:03;;;;;;;9.17;8.13;;;6.80;99.90;;;;;;5075423;28;20419;-70
2021/11/22 09:40:28;;;;;;;7.33;6.63;;;6.80;99.90;;;;;;5092234;28;20414;-70
2021/11/22 09:42:55;;;;;;;7.90;7.10;;;7.00;99.90;;;;;;5092921;28;20231;-70
2021/11/22 09:45:26;;;;;;;7.70;7.00;;;6.90;99.90;;;;;;5091466;28;20165;-70
2021/11/22 09:47:52;;;;;;;9.57;7.70;;;6.90;99.90;;;;;;5093741;28;20405;-69
2021/11/22 09:50:19;;;;;;;7.77;7.03;;;7.00;99.90;;;;;;5092423;28;20410;-68
2021/11/22 09:52:45;;;;;;;8.63;7.40;;;7.20;99.90;;;;;;5092537;28;21169;-69
2021/11/22 09:55:10;;;;;;;8.60;7.70;;;7.20;99.90;;;;;;5090493;28;20416;-70
2021/11/22 09:57:37;;;;;;;8.77;7.90;;;7.20;99.90;;;;;;5092190;28;20399;-70
2021/11/22 10:00:08;;;;;;;8.37;7.57;;;7.00;99.90;;;;;;5073980;28;20173;-70
2021/11/22 10:02:53;;;;;;;9.73;8.73;;;7.00;99.90;;;;;;5091950;28;20423;-70
2021/11/22 10:05:29;;;;;;;10.00;8.90;;;7.10;99.90;;;;;;5074355;28;20414;-70
2021/11/22 10:08:01;;;;;;;9.97;8.67;;;7.10;99.90;;;;;;5092281;28;20419;-70
2021/11/22 10:10:36;;;;;;;9.50;8.30;;;7.00;99.90;;;;;;5092332;28;20459;-69
2021/11/22 10:13:28;;;;;;;11.03;9.10;;;7.00;99.90;;;;;;5092119;28;20517;-70
2021/11/22 10:16:00;;;;;;;9.43;8.40;;;7.00;99.90;;;;;;5091816;28;20489;-70
2021/11/22 10:18:28;;;;;;;9.50;8.53;;;7.10;99.90;;;;;;5090571;28;20419;-70
2021/11/22 10:20:55;;;;;;;9.50;7.67;;;7.10;99.90;;;;;;5092124;28;20407;-70
2021/11/22 10:23:26;;;;;;;9.03;8.10;;;6.90;99.90;;;;;;5091781;28;20462;-70
2021/11/22 10:25:53;;;;;;;11.30;8.30;;;6.90;99.90;;;;;;5092894;28;20438;-69
2021/11/22 10:28:25;;;;;;;8.57;7.77;;;6.80;99.90;;;;;;5092908;28;20419;-69
2021/11/22 10:30:54;;;;;;;8.23;7.40;;;6.80;99.90;;;;;;5094326;28;20446;-69
2021/11/22 10:33:31;;;;;;;7.80;6.93;;;6.90;99.90;;;;;;5091731;28;20422;-69
2021/11/22 10:36:00;;;;;;;6.27;5.63;;;7.00;99.90;;;;;;5091610;28;20397;-69
2021/11/22 10:38:28;;;;;;;6.90;5.50;;;7.00;99.90;;;;;;5071637;28;20501;-69
2021/11/22 10:40:58;;;;;;;5.70;5.10;;;6.90;99.90;;;;;;5088487;28;20446;-70
2021/11/22 10:43:35;;;;;;;5.40;4.97;;;7.00;99.90;;;;;;5071134;28;21012;-70
2021/11/22 10:46:05;;;;;;;5.27;4.77;;;7.10;99.90;;;;;;5071386;28;20398;-70
2021/11/22 10:48:31;;;;;;;6.83;5.57;;;7.40;99.90;;;;;;5071505;28;20491;-70
2021/11/22 10:51:18;;;;;;;5.60;4.90;;;7.50;99.90;;;;;;5072484;28;20924;-70
2021/11/22 10:54:05;;;;;;;5.27;4.80;;;7.50;99.90;;;;;;5057380;28;20194;-70
2021/11/22 10:56:38;;;;;;;4.80;4.03;;;7.60;99.90;;;;;;5074950;28;20461;-70
2021/11/22 10:59:05;;;;;;;4.30;4.00;;;7.70;99.90;;;;;;5075438;28;20483;-70
2021/11/22 11:01:51;;;;;;;4.40;4.10;;;7.70;99.90;;;;;;5076037;28;20955;-70
2021/11/22 11:04:31;;;;;;;4.17;3.77;;;7.70;99.90;;;;;;5074698;28;20801;-70
2021/11/22 11:07:00;;;;;;;4.80;4.33;;;7.60;99.90;;;;;;5074861;28;20514;-70
2021/11/22 11:09:34;;;;;;;4.50;4.10;;;7.40;99.90;;;;;;5074919;28;20490;-70
2021/11/22 11:12:08;;;;;;;4.00;3.60;;;7.30;99.90;;;;;;5074772;28;20427;-70
2021/11/22 11:14:36;;;;;;;4.80;3.80;;;7.30;99.90;;;;;;5092500;28;21039;-69
2021/11/22 11:17:34;;;;;;;4.90;3.63;;;7.50;99.90;;;;;;5076063;28;20415;-69
2021/11/22 11:20:10;;;;;;;4.83;3.60;;;7.60;99.90;;;;;;5090018;28;20949;-70
2021/11/22 11:22:36;;;;;;;4.07;3.77;;;7.80;99.90;;;;;;5114901;22;20574;-70
2021/11/22 11:25:04;;;;;;;4.30;3.58;;;7.90;99.90;;;;;;5028857;28;20446;-70
2021/11/22 11:27:31;;;;;;;4.30;3.90;;;8.10;99.90;;;;;;5014068;28;20640;-69
2021/11/22 11:29:58;;;;;;;3.90;3.60;;;8.20;99.90;;;;;;4996486;28;20410;-71
2021/11/22 11:32:24;;;;;;;5.97;3.80;;;8.30;99.90;;;;;;5014088;28;20403;-72
2021/11/22 11:34:51;;;;;;;3.40;3.10;;;8.40;99.90;;;;;;5022798;28;20476;-72
2021/11/22 11:37:49;;;;;;;3.87;3.43;;;8.50;99.90;;;;;;5033218;28;20418;-72
2021/11/22 11:40:52;;;;;;;9.83;3.50;;;8.60;99.90;;;;;;5025460;28;20948;-71
2021/11/22 11:43:43;;;;;;;3.10;2.90;;;8.30;99.90;;;;;;5033419;28;20461;-71
2021/11/22 11:46:29;;;;;;;3.50;2.93;;;8.30;99.90;;;;;;5031305;28;20797;-71
2021/11/22 11:49:05;;;;;;;4.33;2.90;;;8.10;99.90;;;;;;5033509;28;20397;-70
2021/11/22 11:51:40;;;;;;;4.33;3.33;;;8.10;99.90;;;;;;5033134;28;20467;-72
2021/11/22 11:54:10;;;;;;;4.23;2.90;;;8.10;99.90;;;;;;5033745;28;20795;-71
2021/11/22 11:56:45;;;;;;;3.90;3.30;;;8.20;99.90;;;;;;5018832;28;20934;-71
2021/11/22 11:59:18;;;;;;;3.70;3.40;;;8.10;99.90;;;;;;5013414;28;20497;-71
2021/11/22 12:02:23;;;;;;;3.60;3.30;;;8.20;99.90;;;;;;4995679;28;20419;-71
2021/11/22 12:04:54;;;;;;;8.20;6.40;;;8.20;99.90;;;;;;5014489;28;20461;-72
2021/11/22 12:07:25;;;;;;;4.10;3.67;;;8.30;99.90;;;;;;5013232;28;20407;-72
2021/11/22 12:10:09;;;;;;;4.50;3.93;;;8.40;99.90;;;;;;5014017;28;20398;-71
2021/11/22 12:12:42;;;;;;;4.30;3.90;;;8.30;99.90;;;;;;5016430;28;20433;-72
2021/11/22 12:15:26;;;;;;;4.40;4.10;;;8.10;99.90;;;;;;5019371;28;20407;-72
2021/11/22 12:18:00;;;;;;;5.00;4.50;;;7.80;99.90;;;;;;5022420;28;20425;-73
2021/11/22 12:20:26;;;;;;;5.33;4.87;;;7.70;99.90;;;;;;5036920;28;20444;-72
2021/11/22 12:22:52;;;;;;;5.00;4.50;;;7.70;99.90;;;;;;5034600;28;20965;-72
2021/11/22 12:25:36;;;;;;;5.27;4.77;;;7.60;99.90;;;;;;5040003;28;20413;-72
2021/11/22 12:28:02;;;;;;;5.13;4.20;;;7.60;99.90;;;;;;5043156;28;20167;-69
2021/11/22 12:30:27;;;;;;;6.13;5.20;;;7.50;99.90;;;;;;5032957;28;20454;-69
2021/11/22 12:32:54;;;;;;;4.50;4.17;;;7.50;99.90;;;;;;5032896;28;20189;-72
2021/11/22 12:35:36;;;;;;;5.80;4.33;;;7.60;99.90;;;;;;5017489;28;20191;-71
2021/11/22 12:38:21;;;;;;;5.00;4.50;;;7.60;99.90;;;;;;5012538;28;20406;-70
2021/11/22 12:40:48;;;;;;;5.43;4.83;;;7.60;99.90;;;;;;5014443;28;20419;-71
2021/11/22 12:43:15;;;;;;;5.23;4.67;;;7.60;99.90;;;;;;5032215;28;20452;-71
2021/11/22 12:45:55;;;;;;;4.83;4.43;;;7.60;99.90;;;;;;5032358;28;20780;-71
2021/11/22 12:48:31;;;;;;;5.90;5.00;;;7.60;99.90;;;;;;5031731;28;20406;-70
2021/11/22 12:50:59;;;;;;;4.97;4.53;;;7.60;99.90;;;;;;5032088;28;20500;-71
2021/11/22 12:53:25;;;;;;;5.50;5.10;;;7.80;99.90;;;;;;5031752;28;20475;-71
2021/11/22 12:55:51;;;;;;;7.03;6.43;;;7.80;99.90;;;;;;5020083;28;20426;-71